Time;durP1;ratioP1;P1;durP2;ratioP2;P2;SDS_P1;SDS_P2;PMS_P1;PMS_P2;Temp;Humidity;BMP_temperature;BMP_pressure;BME280_temperature;BME280_humidity;BME280_pressure;Samples;Min_cycle;Max_cycle;Signal;HPM_P1;HPM_P2
2022/01/05 00:00:54;;;;;;;0.85;0.30;;;6.80;83.00;;;;;;5052533;28;20203;-76
2022/01/05 00:03:21;;;;;;;0.30;0.30;;;6.80;83.60;;;;;;5052601;28;20227;-77
2022/01/05 00:05:48;;;;;;;0.32;0.32;;;6.80;83.90;;;;;;5053338;28;20210;-78
2022/01/05 00:08:16;;;;;;;0.50;0.30;;;6.80;84.40;;;;;;5050286;28;20289;-77
2022/01/05 00:10:43;;;;;;;1.17;0.32;;;6.80;85.10;;;;;;5050494;28;20231;-80
2022/01/05 00:13:10;;;;;;;0.30;0.30;;;6.80;85.00;;;;;;5051354;28;20241;-76
2022/01/05 00:15:38;;;;;;;0.50;0.30;;;6.80;85.10;;;;;;5050715;28;20199;-77
2022/01/05 00:18:05;;;;;;;0.80;0.40;;;6.80;84.70;;;;;;5041749;28;20325;-76
2022/01/05 00:20:32;;;;;;;0.50;0.40;;;6.90;85.00;;;;;;5038856;28;20258;-78
2022/01/05 00:22:59;;;;;;;0.40;0.40;;;6.90;85.40;;;;;;5038482;28;20211;-76
2022/01/05 00:25:26;;;;;;;0.45;0.30;;;6.90;85.60;;;;;;5037636;28;20298;-75
2022/01/05 00:27:53;;;;;;;1.20;0.30;;;7.00;84.60;;;;;;5038623;28;20231;-76
2022/01/05 00:30:20;;;;;;;0.38;0.38;;;7.00;85.40;;;;;;5042656;28;20407;-76
2022/01/05 00:32:48;;;;;;;0.35;0.35;;;7.00;84.90;;;;;;5043218;28;20199;-75
2022/01/05 00:35:15;;;;;;;0.40;0.40;;;7.00;84.80;;;;;;5042218;28;20207;-77
2022/01/05 00:37:42;;;;;;;0.30;0.30;;;7.10;84.50;;;;;;5040124;28;20255;-77
2022/01/05 00:40:10;;;;;;;0.40;0.40;;;7.10;84.60;;;;;;5045241;28;20368;-76
2022/01/05 00:42:37;;;;;;;0.47;0.47;;;7.10;85.30;;;;;;5056552;28;20198;-78
2022/01/05 00:45:04;;;;;;;1.30;0.40;;;7.00;86.20;;;;;;5057349;28;20232;-77
2022/01/05 00:47:31;;;;;;;0.43;0.43;;;7.10;85.90;;;;;;5056639;28;20245;-77
2022/01/05 00:49:59;;;;;;;0.73;0.40;;;7.10;86.10;;;;;;5047555;28;20234;-77
2022/01/05 00:52:26;;;;;;;0.50;0.30;;;7.00;85.50;;;;;;5053075;28;20222;-79
2022/01/05 00:54:53;;;;;;;0.82;0.60;;;7.00;85.90;;;;;;5052711;28;20266;-78
2022/01/05 00:57:21;;;;;;;0.65;0.40;;;7.10;86.70;;;;;;5051412;28;20218;-76
2022/01/05 00:59:48;;;;;;;0.40;0.40;;;7.10;85.40;;;;;;5053575;28;20262;-78
2022/01/05 01:02:15;;;;;;;0.85;0.35;;;7.10;84.70;;;;;;5056693;28;20207;-77
2022/01/05 01:04:41;;;;;;;0.40;0.40;;;7.10;85.70;;;;;;5047861;28;20215;-77
2022/01/05 01:07:10;;;;;;;0.30;0.30;;;7.10;87.30;;;;;;5038335;28;20233;-77
2022/01/05 01:09:36;;;;;;;0.50;0.50;;;7.00;87.50;;;;;;5042369;28;20201;-77
2022/01/05 01:12:04;;;;;;;0.57;0.57;;;7.00;88.90;;;;;;5046090;28;20206;-77
2022/01/05 01:14:31;;;;;;;0.30;0.30;;;6.90;90.00;;;;;;5035561;28;20242;-77
2022/01/05 01:16:58;;;;;;;0.50;0.50;;;6.90;90.50;;;;;;5036010;28;20697;-77
2022/01/05 01:19:25;;;;;;;0.30;0.30;;;6.90;90.80;;;;;;5038225;28;20302;-77
2022/01/05 01:21:52;;;;;;;0.40;0.40;;;6.90;91.40;;;;;;5037417;28;20215;-76
2022/01/05 01:24:20;;;;;;;0.60;0.38;;;6.90;91.60;;;;;;5035542;28;20573;-78
2022/01/05 01:26:47;;;;;;;0.50;0.50;;;6.90;92.10;;;;;;5035370;28;20214;-77
2022/01/05 01:29:14;;;;;;;0.50;0.50;;;6.90;92.30;;;;;;5035693;28;20284;-76
2022/01/05 01:31:41;;;;;;;0.50;0.35;;;6.90;92.60;;;;;;5035402;28;20262;-77
2022/01/05 01:34:08;;;;;;;0.30;0.30;;;6.80;92.80;;;;;;5036061;28;20206;-77
2022/01/05 01:36:35;;;;;;;0.47;0.43;;;6.70;93.70;;;;;;5035175;28;20213;-76
2022/01/05 01:39:02;;;;;;;0.50;0.50;;;6.60;94.20;;;;;;5034669;28;20294;-76
2022/01/05 01:41:30;;;;;;;0.82;0.52;;;6.60;95.00;;;;;;5035470;28;20207;-77
2022/01/05 01:43:57;;;;;;;1.30;0.50;;;6.50;95.70;;;;;;5034688;28;20694;-76
2022/01/05 01:46:24;;;;;;;1.02;0.50;;;6.50;96.40;;;;;;5034935;28;20727;-76
2022/01/05 01:48:51;;;;;;;0.32;0.32;;;6.50;96.80;;;;;;5034747;28;20317;-77
2022/01/05 01:51:18;;;;;;;2.05;0.63;;;6.50;97.10;;;;;;5034542;28;20223;-76
2022/01/05 01:53:45;;;;;;;0.60;0.50;;;6.50;97.50;;;;;;5035428;28;20200;-77
2022/01/05 01:56:13;;;;;;;0.70;0.70;;;6.60;96.80;;;;;;5035579;28;20223;-76
2022/01/05 01:58:48;;;;;;;0.68;0.68;;;6.60;96.50;;;;;;5035728;28;20229;-77
2022/01/05 02:01:16;;;;;;;0.50;0.50;;;6.60;96.80;;;;;;5044329;28;20187;-76
2022/01/05 02:03:43;;;;;;;0.73;0.73;;;6.60;95.90;;;;;;5051596;28;20207;-76
2022/01/05 02:06:10;;;;;;;2.85;0.90;;;6.60;96.10;;;;;;5048757;28;20207;-77
2022/01/05 02:08:38;;;;;;;0.68;0.68;;;6.70;96.40;;;;;;5047859;28;20311;-78
2022/01/05 02:11:07;;;;;;;0.60;0.60;;;6.70;95.80;;;;;;5043809;28;20243;-77
2022/01/05 02:13:35;;;;;;;0.70;0.70;;;6.70;95.80;;;;;;5038425;28;20202;-77
2022/01/05 02:16:03;;;;;;;0.95;0.88;;;6.70;95.80;;;;;;5038061;28;20210;-75
2022/01/05 02:21:19;;;;;;;0.70;0.70;;;6.70;95.10;;;;;;5046733;28;20218;-77
2022/01/05 02:23:46;;;;;;;1.85;0.70;;;6.70;94.60;;;;;;5041011;28;20214;-77
2022/01/05 02:26:13;;;;;;;0.65;0.65;;;6.70;93.90;;;;;;5045022;28;20203;-78
2022/01/05 02:28:44;;;;;;;0.63;0.63;;;6.70;93.90;;;;;;5037268;28;20222;-77
2022/01/05 02:31:11;;;;;;;0.82;0.82;;;6.70;93.70;;;;;;5034063;28;20714;-76
2022/01/05 02:33:40;;;;;;;0.70;0.70;;;6.70;93.40;;;;;;5034438;28;20199;-77
2022/01/05 02:36:08;;;;;;;1.25;0.80;;;6.70;93.50;;;;;;5034200;28;20214;-77
2022/01/05 02:38:36;;;;;;;0.70;0.70;;;6.70;93.60;;;;;;5035236;28;20227;-77
2022/01/05 02:41:08;;;;;;;1.48;0.52;;;6.70;93.70;;;;;;5037417;28;20648;-77
2022/01/05 02:43:35;;;;;;;2.00;0.52;;;6.70;93.70;;;;;;5034225;28;20230;-75
2022/01/05 02:46:02;;;;;;;0.90;0.90;;;6.70;93.70;;;;;;5033876;28;20683;-78
2022/01/05 02:48:30;;;;;;;1.15;0.73;;;6.60;94.00;;;;;;5035369;28;20652;-75
2022/01/05 02:50:57;;;;;;;0.82;0.80;;;6.70;94.10;;;;;;5035760;28;20226;-77
2022/01/05 02:53:24;;;;;;;0.85;0.85;;;6.70;94.10;;;;;;5033578;28;20202;-76
2022/01/05 02:55:53;;;;;;;0.80;0.80;;;6.60;94.20;;;;;;5034241;28;20209;-75
2022/01/05 02:58:20;;;;;;;1.10;0.95;;;6.60;94.70;;;;;;5033635;28;20225;-77
2022/01/05 03:00:47;;;;;;;1.25;1.05;;;6.50;94.90;;;;;;5033557;28;20203;-77
2022/01/05 03:03:14;;;;;;;1.00;1.00;;;6.50;95.80;;;;;;5035252;28;20214;-76
2022/01/05 03:05:41;;;;;;;1.00;1.00;;;6.40;96.40;;;;;;5041407;28;20257;-77
2022/01/05 03:08:08;;;;;;;1.30;1.30;;;6.40;97.30;;;;;;5049433;28;20299;-80
2022/01/05 03:10:35;;;;;;;1.40;1.30;;;6.40;97.50;;;;;;5056565;28;20226;-81
2022/01/05 03:13:03;;;;;;;1.30;1.20;;;6.30;98.40;;;;;;5055383;28;20450;-80
2022/01/05 03:15:30;;;;;;;1.05;0.95;;;6.30;99.20;;;;;;5044919;28;20671;-76
2022/01/05 03:17:57;;;;;;;1.33;1.23;;;6.30;99.70;;;;;;5039018;28;20242;-77
2022/01/05 03:20:24;;;;;;;3.53;1.05;;;6.30;99.90;;;;;;5037127;28;20610;-76
2022/01/05 03:22:51;;;;;;;1.33;1.23;;;6.40;99.90;;;;;;5033971;28;20232;-77
2022/01/05 03:25:19;;;;;;;1.20;1.10;;;6.30;99.90;;;;;;5033977;28;20199;-76
2022/01/05 03:27:47;;;;;;;1.15;1.05;;;6.30;99.90;;;;;;5033843;28;20231;-76
2022/01/05 03:30:18;;;;;;;2.97;1.23;;;6.40;99.90;;;;;;5033326;28;20199;-76
2022/01/05 03:33:06;;;;;;;1.15;1.08;;;6.40;99.90;;;;;;5032909;28;20241;-76
2022/01/05 03:35:36;;;;;;;1.30;1.30;;;6.40;99.90;;;;;;5033203;28;20655;-78
2022/01/05 03:38:05;;;;;;;0.90;0.90;;;6.40;99.90;;;;;;5033261;28;20285;-77
2022/01/05 03:40:32;;;;;;;1.05;1.00;;;6.30;99.90;;;;;;5032834;28;20225;-77
2022/01/05 03:42:59;;;;;;;0.70;0.70;;;6.30;99.90;;;;;;5032925;28;20226;-75
2022/01/05 03:45:28;;;;;;;1.88;1.77;;;6.30;99.90;;;;;;5032697;28;20207;-76
2022/01/05 03:47:54;;;;;;;1.67;1.42;;;6.30;99.90;;;;;;5032823;28;20258;-77
2022/01/05 03:50:21;;;;;;;1.35;1.20;;;6.30;99.90;;;;;;5033582;28;20225;-77
2022/01/05 03:52:48;;;;;;;1.13;1.05;;;6.30;99.90;;;;;;5043588;28;20192;-76
2022/01/05 03:55:15;;;;;;;1.52;1.42;;;6.30;99.90;;;;;;5040392;28;20234;-75
2022/01/05 03:57:42;;;;;;;1.55;1.45;;;6.30;99.90;;;;;;5034564;28;20255;-77
2022/01/05 04:00:10;;;;;;;1.55;1.40;;;6.30;99.90;;;;;;5033158;28;20681;-76
2022/01/05 04:02:38;;;;;;;1.50;1.40;;;6.40;99.90;;;;;;5032616;28;20280;-75
2022/01/05 04:05:06;;;;;;;3.58;1.40;;;6.40;99.90;;;;;;5033195;28;20239;-79
2022/01/05 04:07:33;;;;;;;4.03;1.58;;;6.40;99.90;;;;;;5033419;28;20281;-76
2022/01/05 04:10:00;;;;;;;1.83;1.65;;;6.40;99.90;;;;;;5033303;28;20246;-76
2022/01/05 04:12:27;;;;;;;1.50;1.40;;;6.50;99.90;;;;;;5033028;28;20313;-76
2022/01/05 04:14:54;;;;;;;1.48;1.38;;;6.50;99.90;;;;;;5032848;28;20569;-76
2022/01/05 04:17:21;;;;;;;1.45;1.35;;;6.50;99.90;;;;;;5032436;28;20207;-77
2022/01/05 04:19:49;;;;;;;1.40;1.30;;;6.50;99.70;;;;;;5033282;28;20670;-76
2022/01/05 04:22:16;;;;;;;2.13;1.25;;;6.60;99.40;;;;;;5033443;28;20206;-76
2022/01/05 04:24:43;;;;;;;0.80;0.80;;;6.60;99.10;;;;;;5036033;28;20647;-77
2022/01/05 04:27:10;;;;;;;0.30;0.30;;;6.60;96.90;;;;;;5038171;28;20305;-76
2022/01/05 04:29:37;;;;;;;0.40;0.40;;;5.90;77.40;;;;;;5038986;28;20217;-75
2022/01/05 04:32:05;;;;;;;0.30;0.30;;;5.50;74.60;;;;;;5038508;28;20227;-77
2022/01/05 04:34:32;;;;;;;0.38;0.38;;;5.30;73.30;;;;;;5039643;28;20203;-77
2022/01/05 04:37:00;;;;;;;0.63;0.30;;;5.10;73.10;;;;;;5040124;28;20213;-77
2022/01/05 04:39:27;;;;;;;0.35;0.35;;;5.00;74.20;;;;;;5042603;28;20230;-77
2022/01/05 04:41:54;;;;;;;1.08;0.40;;;4.90;76.20;;;;;;5048742;28;20227;-77
2022/01/05 04:44:21;;;;;;;0.40;0.40;;;4.90;76.10;;;;;;5047556;28;20218;-75
2022/01/05 04:46:47;;;;;;;0.40;0.30;;;4.80;75.90;;;;;;5055553;28;20206;-74
2022/01/05 04:49:15;;;;;;;0.38;0.38;;;4.90;74.50;;;;;;5048470;28;20233;-77
2022/01/05 04:51:41;;;;;;;0.30;0.30;;;4.90;72.90;;;;;;5036920;28;20234;-77
2022/01/05 04:54:10;;;;;;;1.25;0.50;;;4.90;73.70;;;;;;5036811;28;20261;-77
2022/01/05 04:56:37;;;;;;;1.75;0.75;;;4.90;73.90;;;;;;5036890;28;20305;-76
2022/01/05 04:59:04;;;;;;;0.50;0.50;;;4.90;72.90;;;;;;5037725;28;20734;-76
2022/01/05 05:01:31;;;;;;;1.10;0.57;;;5.00;71.70;;;;;;5035492;28;20291;-77
2022/01/05 05:03:58;;;;;;;0.98;0.65;;;5.00;71.60;;;;;;5043879;28;20222;-78
2022/01/05 05:06:25;;;;;;;1.05;0.73;;;5.00;70.40;;;;;;5041911;28;20238;-77
2022/01/05 05:08:51;;;;;;;0.82;0.50;;;5.10;69.70;;;;;;5042922;28;20223;-77
2022/01/05 05:11:20;;;;;;;1.35;0.75;;;5.10;68.60;;;;;;5038279;28;20586;-77
2022/01/05 05:13:47;;;;;;;1.00;0.70;;;5.10;69.50;;;;;;5040069;28;20199;-77
2022/01/05 05:16:13;;;;;;;1.52;0.75;;;5.10;69.30;;;;;;5041173;28;20207;-77
2022/01/05 05:18:40;;;;;;;1.20;0.73;;;5.10;69.90;;;;;;5042796;28;20235;-78
2022/01/05 05:21:07;;;;;;;1.35;0.40;;;5.20;68.90;;;;;;5040328;28;20215;-76
2022/01/05 05:23:34;;;;;;;0.50;0.30;;;5.20;68.20;;;;;;5039773;28;20203;-77
2022/01/05 05:26:01;;;;;;;0.30;0.30;;;5.20;67.50;;;;;;5038065;28;20642;-77
2022/01/05 05:28:29;;;;;;;1.08;0.50;;;5.20;67.30;;;;;;5037739;28;20219;-77
2022/01/05 05:30:56;;;;;;;0.63;0.40;;;5.10;68.20;;;;;;5036251;28;20299;-77
2022/01/05 05:33:23;;;;;;;2.45;0.50;;;5.00;71.10;;;;;;5037192;28;20233;-77
2022/01/05 05:35:50;;;;;;;0.60;0.60;;;4.90;73.30;;;;;;5037761;28;20317;-77
2022/01/05 05:38:17;;;;;;;1.02;0.52;;;4.80;76.20;;;;;;5037369;28;20285;-79
2022/01/05 05:40:44;;;;;;;0.65;0.50;;;4.80;79.10;;;;;;5037485;28;20203;-77
2022/01/05 05:43:12;;;;;;;1.20;0.50;;;4.70;78.90;;;;;;5049054;28;20202;-79
2022/01/05 05:45:40;;;;;;;0.40;0.40;;;4.70;80.30;;;;;;5039215;28;20199;-77
2022/01/05 05:48:07;;;;;;;0.60;0.60;;;4.80;81.10;;;;;;5055432;28;20825;-77
2022/01/05 05:50:35;;;;;;;0.60;0.60;;;4.80;81.20;;;;;;5057946;28;20730;-77
2022/01/05 05:53:01;;;;;;;0.50;0.50;;;4.80;80.50;;;;;;5058194;28;20293;-78
2022/01/05 05:55:28;;;;;;;0.47;0.47;;;4.90;79.10;;;;;;5039162;28;20272;-78
2022/01/05 05:57:55;;;;;;;1.13;0.93;;;4.90;77.70;;;;;;5039971;28;20237;-78
2022/01/05 06:00:22;;;;;;;0.40;0.40;;;4.90;75.30;;;;;;5038305;28;20207;-78
2022/01/05 06:02:51;;;;;;;0.52;0.52;;;5.00;73.70;;;;;;5038116;28;20231;-79
2022/01/05 06:05:18;;;;;;;0.60;0.60;;;5.00;73.00;;;;;;5038280;28;20238;-76
2022/01/05 06:07:45;;;;;;;1.02;0.60;;;5.00;73.00;;;;;;5050285;28;20229;-78
2022/01/05 06:10:12;;;;;;;1.15;0.63;;;5.00;72.60;;;;;;5055816;28;20207;-79
2022/01/05 06:12:39;;;;;;;2.05;0.80;;;5.10;73.10;;;;;;5054216;28;20225;-78
2022/01/05 06:15:06;;;;;;;0.60;0.60;;;5.10;73.10;;;;;;5040925;28;20218;-78
2022/01/05 06:17:33;;;;;;;0.60;0.60;;;5.00;71.50;;;;;;5038097;28;20227;-78
2022/01/05 06:20:03;;;;;;;2.42;0.70;;;4.90;72.10;;;;;;5041363;28;20207;-78
2022/01/05 06:22:30;;;;;;;0.88;0.88;;;4.90;69.10;;;;;;5039059;28;20282;-78
2022/01/05 06:24:57;;;;;;;1.05;0.68;;;4.70;68.40;;;;;;5038329;28;20213;-76
2022/01/05 06:27:24;;;;;;;1.55;0.80;;;4.60;66.90;;;;;;5039040;28;20247;-76
2022/01/05 06:29:51;;;;;;;4.32;1.05;;;4.60;67.00;;;;;;5040574;28;20199;-77
2022/01/05 06:32:18;;;;;;;2.28;1.10;;;4.50;64.70;;;;;;5041711;28;20222;-76
2022/01/05 06:34:44;;;;;;;1.85;1.20;;;4.40;64.50;;;;;;5045917;28;20259;-76
2022/01/05 06:37:15;;;;;;;2.03;1.15;;;4.40;63.80;;;;;;5048356;28;20241;-77
2022/01/05 06:39:42;;;;;;;2.53;1.08;;;4.20;63.60;;;;;;5048067;28;20250;-76
2022/01/05 06:42:09;;;;;;;2.47;1.30;;;4.20;63.60;;;;;;5047834;28;20223;-76
2022/01/05 06:44:36;;;;;;;2.05;1.00;;;4.20;63.60;;;;;;5047945;28;20214;-77
2022/01/05 06:47:04;;;;;;;2.40;1.27;;;4.20;63.60;;;;;;5041873;28;20226;-77
2022/01/05 06:49:31;;;;;;;2.50;1.33;;;4.20;61.80;;;;;;5040090;28;20651;-77
2022/01/05 06:51:58;;;;;;;2.15;0.90;;;4.20;62.00;;;;;;5041576;28;20269;-76
2022/01/05 06:54:27;;;;;;;2.15;1.95;;;4.20;63.60;;;;;;5047380;28;20195;-76
2022/01/05 06:56:54;;;;;;;2.88;1.13;;;4.20;63.60;;;;;;5048022;28;20298;-76
2022/01/05 06:59:21;;;;;;;2.95;1.60;;;4.20;63.60;;;;;;5047858;28;20223;-76
2022/01/05 07:01:47;;;;;;;3.53;1.52;;;4.20;63.60;;;;;;5047823;28;20198;-75
2022/01/05 07:04:14;;;;;;;2.05;1.52;;;4.20;62.70;;;;;;5051063;28;20233;-77
2022/01/05 07:06:41;;;;;;;2.97;1.38;;;4.10;61.60;;;;;;5050248;28;20274;-76
2022/01/05 07:09:08;;;;;;;2.38;1.15;;;4.10;60.90;;;;;;5049075;28;20245;-76
2022/01/05 07:11:37;;;;;;;1.83;1.73;;;4.10;60.00;;;;;;5042755;28;20685;-76
2022/01/05 07:14:05;;;;;;;4.55;1.67;;;4.10;59.80;;;;;;5049649;28;20210;-76
2022/01/05 07:16:32;;;;;;;2.78;1.55;;;4.10;61.40;;;;;;5047452;28;20214;-78
2022/01/05 07:18:59;;;;;;;1.15;1.00;;;4.10;62.30;;;;;;5040098;28;20317;-75
2022/01/05 07:21:26;;;;;;;1.25;1.15;;;4.10;63.20;;;;;;5038647;28;20209;-76
2022/01/05 07:23:53;;;;;;;5.82;1.50;;;4.10;63.50;;;;;;5043158;28;20238;-77
2022/01/05 07:26:21;;;;;;;2.78;2.00;;;4.10;63.60;;;;;;5045875;28;20236;-77
2022/01/05 07:28:49;;;;;;;4.90;1.90;;;4.10;64.50;;;;;;5048371;28;20288;-75
2022/01/05 07:31:16;;;;;;;2.97;1.80;;;4.10;63.50;;;;;;5051972;28;20326;-74
2022/01/05 07:33:43;;;;;;;2.78;1.50;;;4.10;63.20;;;;;;5053748;28;20253;-75
2022/01/05 07:36:10;;;;;;;5.50;2.72;;;4.00;62.70;;;;;;5054950;28;20295;-75
2022/01/05 07:38:37;;;;;;;4.43;2.15;;;4.00;63.50;;;;;;5051880;28;20219;-76
2022/01/05 07:41:04;;;;;;;3.65;1.70;;;4.00;63.50;;;;;;5041099;28;20285;-77
2022/01/05 07:43:31;;;;;;;4.55;2.72;;;4.00;63.50;;;;;;5054559;28;20183;-74
2022/01/05 07:45:59;;;;;;;3.28;2.08;;;4.00;63.50;;;;;;5055144;28;20278;-76
2022/01/05 07:48:26;;;;;;;4.05;1.88;;;4.00;64.70;;;;;;5051369;28;20222;-77
2022/01/05 07:50:53;;;;;;;2.67;2.05;;;4.00;65.20;;;;;;5046891;28;20217;-77
2022/01/05 07:53:20;;;;;;;5.20;2.03;;;4.00;65.90;;;;;;5040576;28;20294;-76
2022/01/05 07:55:47;;;;;;;4.63;2.42;;;3.90;66.30;;;;;;5037184;28;20298;-77
2022/01/05 07:58:14;;;;;;;5.38;2.20;;;3.90;67.40;;;;;;5036156;28;20237;-77
2022/01/05 08:00:41;;;;;;;3.55;2.03;;;3.90;66.00;;;;;;5039314;28;20302;-79
2022/01/05 08:03:10;;;;;;;5.68;1.90;;;3.90;66.30;;;;;;5041167;28;20286;-77
2022/01/05 08:05:37;;;;;;;5.93;2.58;;;3.80;64.50;;;;;;5044669;28;20340;-78
2022/01/05 08:08:04;;;;;;;3.40;2.20;;;3.80;63.70;;;;;;5044811;28;20782;-77
2022/01/05 08:10:31;;;;;;;3.72;2.20;;;3.80;63.30;;;;;;5063267;28;20271;-78
2022/01/05 08:12:58;;;;;;;2.47;1.65;;;3.70;59.70;;;;;;5054406;28;20287;-78
2022/01/05 08:15:25;;;;;;;4.70;1.75;;;3.70;55.90;;;;;;5041693;28;20207;-78
2022/01/05 08:17:51;;;;;;;3.95;1.60;;;3.70;54.20;;;;;;5042409;28;20722;-79
2022/01/05 08:20:20;;;;;;;6.25;1.83;;;3.60;54.10;;;;;;5042542;28;20595;-77
2022/01/05 08:22:47;;;;;;;5.72;2.30;;;3.60;53.00;;;;;;5042238;28;20215;-79
2022/01/05 08:25:20;;;;;;;8.68;2.88;;;3.50;52.50;;;;;;5040775;28;20297;-78
2022/01/05 08:27:48;;;;;;;6.57;2.17;;;3.50;50.80;;;;;;5046370;28;20262;-80
2022/01/05 08:30:16;;;;;;;5.75;2.30;;;3.40;50.60;;;;;;5049441;28;20235;-77
2022/01/05 08:32:44;;;;;;;4.38;2.33;;;3.40;50.20;;;;;;5050800;28;20253;-80
2022/01/05 08:35:12;;;;;;;1.88;1.50;;;3.40;49.20;;;;;;5047856;28;20651;-78
2022/01/05 08:37:43;;;;;;;4.75;2.55;;;3.40;47.90;;;;;;5048998;28;20300;-79
2022/01/05 08:40:12;;;;;;;4.70;1.52;;;3.40;47.10;;;;;;5058010;28;20206;-81
2022/01/05 08:42:39;;;;;;;5.53;1.52;;;3.40;46.90;;;;;;5064275;28;20214;-76
2022/01/05 08:45:08;;;;;;;5.70;1.70;;;3.40;48.10;;;;;;5050723;28;20219;-78
2022/01/05 08:47:35;;;;;;;2.00;1.40;;;3.40;46.50;;;;;;5052806;28;20291;-79
2022/01/05 08:50:02;;;;;;;2.60;1.35;;;3.40;46.40;;;;;;5054691;28;20249;-76
2022/01/05 08:52:29;;;;;;;5.82;2.08;;;3.40;47.50;;;;;;5058007;28;20200;-79
2022/01/05 08:54:57;;;;;;;10.43;2.17;;;3.40;47.80;;;;;;5056961;28;20214;-78
2022/01/05 08:57:24;;;;;;;2.75;1.33;;;3.30;48.60;;;;;;5054983;28;20283;-77
2022/01/05 08:59:52;;;;;;;4.80;1.77;;;3.30;48.70;;;;;;5055112;28;20203;-78
2022/01/05 09:02:19;;;;;;;3.35;2.25;;;3.40;49.10;;;;;;5056962;28;20274;-78
2022/01/05 09:04:51;;;;;;;7.10;1.63;;;3.40;49.20;;;;;;5069774;28;20241;-81
2022/01/05 09:07:19;;;;;;;3.47;1.80;;;3.40;53.90;;;;;;5071858;28;20226;-78
2022/01/05 09:09:46;;;;;;;3.50;1.95;;;3.40;55.10;;;;;;5049069;28;20267;-79
2022/01/05 09:12:15;;;;;;;5.05;2.00;;;3.40;57.20;;;;;;5048377;28;20215;-77
2022/01/05 09:14:42;;;;;;;3.80;2.15;;;3.40;58.90;;;;;;5046463;28;20237;-79
2022/01/05 09:17:09;;;;;;;7.35;2.20;;;3.40;58.10;;;;;;5042965;28;20305;-79
2022/01/05 09:19:36;;;;;;;7.70;2.50;;;3.50;58.10;;;;;;5046434;28;20305;-76
2022/01/05 09:22:07;;;;;;;6.38;3.45;;;3.50;57.80;;;;;;5053446;28;20207;-75
2022/01/05 09:24:34;;;;;;;7.95;2.10;;;3.60;57.20;;;;;;5055452;28;20203;-77
2022/01/05 09:27:03;;;;;;;3.85;1.77;;;3.60;55.80;;;;;;5055228;28;20262;-77
2022/01/05 09:29:32;;;;;;;6.38;2.05;;;3.70;56.00;;;;;;5055295;28;20194;-76
2022/01/05 09:32:03;;;;;;;8.27;2.63;;;3.70;57.00;;;;;;5047976;28;20760;-77
2022/01/05 09:34:31;;;;;;;4.05;2.20;;;3.70;56.20;;;;;;5041635;28;20229;-79
2022/01/05 09:37:01;;;;;;;5.80;2.38;;;3.70;57.00;;;;;;5038852;28;20199;-78
2022/01/05 09:42:14;;;;;;;3.90;2.17;;;3.70;57.10;;;;;;5060628;28;20282;-79
2022/01/05 09:44:44;;;;;;;7.90;2.72;;;3.70;56.20;;;;;;5059897;28;20213;-78
2022/01/05 09:47:47;;;;;;;4.72;2.50;;;3.70;55.60;;;;;;5036527;28;20192;-76
2022/01/05 09:50:15;;;;;;;8.38;2.08;;;3.80;54.30;;;;;;5003969;28;20270;-77
2022/01/05 09:52:44;;;;;;;6.57;2.45;;;3.80;54.50;;;;;;5027857;28;20262;-77
2022/01/05 09:55:12;;;;;;;5.88;2.25;;;3.90;54.40;;;;;;5047625;28;20233;-78
2022/01/05 09:57:40;;;;;;;7.57;2.38;;;3.90;54.40;;;;;;5041785;28;20235;-77
2022/01/05 10:00:11;;;;;;;5.05;2.40;;;4.10;54.50;;;;;;5049484;28;20195;-78
2022/01/05 10:02:38;;;;;;;5.25;2.13;;;4.30;54.70;;;;;;5046248;28;20262;-77
2022/01/05 10:05:08;;;;;;;13.98;3.13;;;4.50;52.90;;;;;;5038137;28;20246;-76
2022/01/05 10:07:35;;;;;;;7.63;2.75;;;4.50;52.00;;;;;;5042860;28;20313;-78
2022/01/05 10:10:03;;;;;;;4.00;2.30;;;4.50;51.60;;;;;;5040558;28;20214;-78
2022/01/05 10:12:30;;;;;;;6.50;2.45;;;4.50;51.70;;;;;;5045892;28;20207;-77
2022/01/05 10:14:58;;;;;;;9.13;2.20;;;4.50;51.00;;;;;;5050131;28;20219;-77
2022/01/05 10:17:28;;;;;;;5.03;2.80;;;4.60;51.60;;;;;;5046809;28;20302;-78
2022/01/05 10:19:59;;;;;;;6.80;1.92;;;4.60;50.40;;;;;;5048502;28;20285;-77
2022/01/05 10:22:34;;;;;;;9.88;2.70;;;4.60;50.30;;;;;;5034970;28;20248;-78
2022/01/05 10:25:04;;;;;;;7.55;2.50;;;4.60;49.50;;;;;;5036032;28;20269;-77
2022/01/05 10:27:32;;;;;;;9.82;2.75;;;4.70;49.40;;;;;;5037206;28;20223;-78
2022/01/05 10:30:01;;;;;;;8.40;2.72;;;4.70;49.80;;;;;;5039373;28;20314;-78
2022/01/05 10:32:32;;;;;;;8.15;2.35;;;4.70;49.30;;;;;;5038777;28;20261;-78
2022/01/05 10:35:01;;;;;;;4.82;2.28;;;4.80;49.80;;;;;;5039400;28;20203;-78
2022/01/05 10:37:27;;;;;;;7.95;3.22;;;5.00;49.90;;;;;;5037337;28;20276;-79
2022/01/05 10:40:09;;;;;;;6.10;2.75;;;5.10;49.80;;;;;;5037315;28;20208;-79
2022/01/05 10:42:37;;;;;;;6.82;2.33;;;5.00;50.10;;;;;;5041398;28;20222;-79
2022/01/05 10:45:06;;;;;;;7.75;2.55;;;4.90;50.00;;;;;;5040733;28;20706;-79
2022/01/05 10:47:35;;;;;;;7.85;2.15;;;5.00;50.50;;;;;;5037961;28;20278;-76
2022/01/05 10:50:04;;;;;;;6.38;3.30;;;5.00;50.20;;;;;;5039472;28;20226;-79
2022/01/05 10:52:32;;;;;;;7.20;2.45;;;5.00;50.10;;;;;;5036839;28;20282;-78
2022/01/05 10:55:12;;;;;;;2.15;1.80;;;4.90;49.50;;;;;;5038771;28;20271;-77
2022/01/05 10:57:39;;;;;;;11.93;2.78;;;4.80;50.30;;;;;;5038678;28;20218;-78
2022/01/05 11:00:08;;;;;;;6.25;2.30;;;4.80;49.80;;;;;;5040810;28;20275;-77
2022/01/05 11:02:37;;;;;;;5.25;2.25;;;4.80;49.60;;;;;;5039101;28;20204;-77
2022/01/05 11:05:16;;;;;;;6.05;2.25;;;4.80;49.60;;;;;;5038905;28;20261;-78
2022/01/05 11:07:46;;;;;;;5.65;2.83;;;4.70;49.50;;;;;;5039047;28;20223;-77
2022/01/05 11:10:16;;;;;;;5.55;2.53;;;4.60;49.20;;;;;;5051859;28;20217;-76
2022/01/05 11:12:44;;;;;;;7.35;3.03;;;4.70;49.70;;;;;;5052882;28;20195;-79
2022/01/05 11:15:27;;;;;;;8.73;3.95;;;4.80;48.90;;;;;;5050533;28;20207;-77
2022/01/05 11:18:13;;;;;;;5.05;2.22;;;4.70;48.00;;;;;;5052473;28;20231;-81
2022/01/05 11:20:43;;;;;;;7.40;2.60;;;4.90;48.40;;;;;;5050008;28;20207;-78
2022/01/05 11:23:10;;;;;;;3.13;2.05;;;4.80;46.80;;;;;;5048117;28;20278;-78
2022/01/05 11:25:39;;;;;;;7.93;2.30;;;5.00;46.10;;;;;;5045032;28;20214;-79
2022/01/05 11:28:07;;;;;;;8.43;2.10;;;5.00;46.60;;;;;;5046889;28;20230;-79
2022/01/05 11:30:35;;;;;;;7.00;2.53;;;5.00;46.60;;;;;;5047058;28;20219;-79
2022/01/05 11:33:03;;;;;;;7.85;2.80;;;4.90;45.80;;;;;;5047364;28;20203;-79
2022/01/05 11:35:31;;;;;;;5.70;3.00;;;5.00;45.90;;;;;;5048812;28;20227;-80
2022/01/05 11:37:59;;;;;;;8.65;2.28;;;5.00;45.90;;;;;;5051812;28;20298;-79
2022/01/05 11:40:27;;;;;;;8.98;2.50;;;5.00;45.90;;;;;;5046807;28;20230;-78
2022/01/05 11:43:00;;;;;;;4.65;2.70;;;4.80;45.70;;;;;;5048305;28;20223;-78
2022/01/05 11:45:30;;;;;;;5.82;2.25;;;4.70;45.60;;;;;;5051604;28;20197;-83
2022/01/05 11:48:17;;;;;;;5.30;2.03;;;4.70;46.00;;;;;;5053836;28;20242;-81
2022/01/05 11:50:47;;;;;;;4.50;2.25;;;4.80;45.70;;;;;;5052239;28;20203;-77
2022/01/05 11:53:15;;;;;;;9.05;2.20;;;4.90;45.70;;;;;;5054150;28;20187;-80
2022/01/05 11:56:17;;;;;;;5.15;2.03;;;5.00;46.30;;;;;;5052719;28;20230;-79
2022/01/05 11:59:01;;;;;;;4.95;1.83;;;5.10;46.60;;;;;;5047863;28;20210;-79
2022/01/05 12:01:33;;;;;;;6.70;2.03;;;4.90;45.70;;;;;;5051386;28;20214;-79
2022/01/05 12:04:09;;;;;;;5.43;2.30;;;4.70;46.90;;;;;;5052192;28;20237;-78
2022/01/05 12:07:07;;;;;;;5.70;2.10;;;4.60;47.20;;;;;;5052348;28;20211;-78
2022/01/05 12:09:39;;;;;;;5.57;1.90;;;4.50;48.00;;;;;;5052329;28;20207;-78
2022/01/05 12:12:24;;;;;;;8.15;1.95;;;4.60;48.20;;;;;;5052912;28;20208;-78
2022/01/05 12:14:51;;;;;;;4.85;2.08;;;4.60;47.80;;;;;;5053293;28;20222;-78
2022/01/05 12:17:20;;;;;;;9.32;4.07;;;4.50;46.40;;;;;;5053636;28;20329;-77
2022/01/05 12:20:08;;;;;;;7.60;2.38;;;4.40;46.20;;;;;;5052520;28;20196;-78
2022/01/05 12:22:36;;;;;;;4.70;2.10;;;4.40;47.30;;;;;;5051231;28;20211;-79
2022/01/05 12:25:11;;;;;;;3.78;1.90;;;4.50;46.80;;;;;;5050811;28;20256;-78
2022/01/05 12:27:40;;;;;;;3.88;1.60;;;4.50;46.40;;;;;;5050266;28;20322;-78
2022/01/05 12:30:35;;;;;;;4.95;1.67;;;4.40;45.40;;;;;;5048499;28;20218;-77
2022/01/05 12:33:05;;;;;;;4.82;1.52;;;4.30;45.30;;;;;;5047097;28;20306;-79
2022/01/05 12:35:48;;;;;;;4.40;1.92;;;4.30;45.30;;;;;;5048461;28;20277;-79
2022/01/05 12:38:40;;;;;;;6.10;1.80;;;4.30;45.30;;;;;;5048447;28;20223;-77
2022/01/05 12:41:34;;;;;;;8.48;1.77;;;4.30;45.30;;;;;;5047570;28;20213;-79
2022/01/05 12:44:22;;;;;;;3.42;1.52;;;4.30;45.30;;;;;;5035937;28;20258;-79
2022/01/05 12:46:52;;;;;;;7.97;1.98;;;4.30;45.30;;;;;;5050513;28;20230;-78
2022/01/05 12:49:19;;;;;;;8.27;2.20;;;4.40;45.40;;;;;;5064518;28;20248;-78
2022/01/05 12:51:53;;;;;;;3.85;1.90;;;4.70;45.60;;;;;;5073381;28;20210;-77
2022/01/05 12:54:24;;;;;;;7.05;1.60;;;4.70;45.60;;;;;;5067426;28;20368;-79
2022/01/05 12:56:57;;;;;;;3.50;1.77;;;4.80;45.70;;;;;;5054071;28;20214;-81
2022/01/05 12:59:29;;;;;;;3.80;1.35;;;4.80;44.40;;;;;;5053881;28;20234;-81
2022/01/05 13:02:00;;;;;;;7.88;2.20;;;4.80;44.60;;;;;;5064686;28;20210;-78
2022/01/05 13:04:27;;;;;;;4.15;2.00;;;4.80;44.30;;;;;;5074702;28;20253;-78
2022/01/05 13:06:58;;;;;;;2.78;1.60;;;4.80;45.70;;;;;;5074222;28;20202;-80
2022/01/05 13:09:30;;;;;;;7.25;2.55;;;4.90;44.50;;;;;;5075695;28;20297;-79
2022/01/05 13:12:00;;;;;;;5.30;3.10;;;4.90;45.70;;;;;;5074564;28;20225;-80